logo
Rechercher aéroport 
image banner adimage banner adimage banner ad
image banner ad

19VT - Monsalvat Farm Holdings Llc

Situé à Barnard, United States

ICAO - 19VT, IATA -

Données fournies par Airmate  

Information générale

Coordonnées: N43°45'24" W72°36'47"
Élévation : 1496 feet MSL.
 
Voir autres Aéroports à Vermont

Données opérationnelles

Special qualification required
Heure actuelle UTC:
Heure actuelle locale:
Météo à : KLEB - Lebanon Muni ( 29 km )
METAR: KLEB 151953Z 24006KT 10SM SCT050 BKN060 33/20 A2979 RMK AO2 SLP074 T03280200
TAF: KLEB 151728Z 1518/1618 24009KT P6SM SCT080 FM152300 21005KT P6SM -SHRA BKN060 OVC200 FM160900 VRB02KT 4SM BR OVC015 FM161000 00000KT 3SM BR OVC007 FM161300 24008KT P6SM SCT040
Voir NOTAMs / SUP AIP / TFR affectant cet aéroport [VIEW]
Fréquences de communication: [VIEW]

Pistes:

Coordonnées de l'aéroport

Adresse: Barnard United States

Vue satellite de 19VT